createdAt,value
2022-11-28T00:01:19.642Z,101091.19
2022-11-28T00:03:47.732Z,101088.59
2022-11-28T00:06:16.133Z,101082.47
2022-11-28T00:08:44.437Z,101076.31
2022-11-28T00:11:14.566Z,101078.03
2022-11-28T00:13:43.573Z,101075.47
2022-11-28T00:16:17.716Z,101079.00
2022-11-28T00:18:45.550Z,101065.84
2022-11-28T00:21:15.142Z,101066.78
2022-11-28T00:23:43.450Z,101064.16
2022-11-28T00:26:14.805Z,101063.31
2022-11-28T00:28:42.609Z,101065.16
2022-11-28T00:31:14.088Z,101060.78
2022-11-28T00:33:43.436Z,101068.78
2022-11-28T00:36:12.118Z,101067.06
2022-11-28T00:38:40.431Z,101074.16
2022-11-28T00:41:11.079Z,101068.97
2022-11-28T00:43:39.138Z,101069.97
2022-11-28T00:46:07.463Z,101078.78
2022-11-28T00:48:36.114Z,101084.13
2022-11-28T00:51:11.027Z,101089.47
2022-11-28T00:53:40.475Z,101097.41
2022-11-28T00:56:10.266Z,101093.88
2022-11-28T00:58:38.945Z,101092.19
2022-11-28T01:01:11.067Z,101095.72
2022-11-28T01:03:39.594Z,101081.69
2022-11-28T01:06:10.499Z,101087.03
2022-11-28T01:08:38.682Z,101101.09
2022-11-28T01:11:12.494Z,101084.41
2022-11-28T01:13:40.643Z,101089.72
2022-11-28T01:16:09.449Z,101096.78
2022-11-28T01:18:38.336Z,101102.03
2022-11-28T01:21:08.660Z,101101.16
2022-11-28T01:23:36.515Z,101097.66
2022-11-28T01:26:07.012Z,101087.97
2022-11-28T01:28:34.883Z,101077.47
2022-11-28T01:31:07.140Z,101085.38
2022-11-28T01:33:35.187Z,101071.31
2022-11-28T01:36:03.471Z,101082.81
2022-11-28T01:38:33.099Z,101078.38
2022-11-28T01:41:00.799Z,101089.84
2022-11-28T01:43:28.687Z,101064.34
2022-11-28T01:45:57.467Z,101084.59
2022-11-28T01:48:28.234Z,101077.56
2022-11-28T01:50:59.522Z,101069.66
2022-11-28T01:53:30.100Z,101063.50
2022-11-28T01:56:06.979Z,101074.06
2022-11-28T01:58:37.442Z,101056.50
2022-11-28T02:01:06.103Z,101050.34
2022-11-28T02:03:40.462Z,101057.41
2022-11-28T02:06:08.670Z,101030.22
2022-11-28T02:08:37.653Z,101032.84
2022-11-28T02:11:26.791Z,101032.88
2022-11-28T02:14:06.809Z,101026.75
2022-11-28T02:16:52.289Z,101011.88
2022-11-28T02:20:05.141Z,101011.91
2022-11-28T02:22:38.960Z,101017.25
2022-11-28T02:25:42.181Z,101017.28
2022-11-28T02:28:40.893Z,101030.47
2022-11-28T02:31:25.178Z,101027.84
2022-11-28T02:33:57.076Z,101011.19
2022-11-28T02:36:32.438Z,101001.53
2022-11-28T02:39:09.994Z,101000.72
2022-11-28T02:41:45.870Z,101001.59
2022-11-28T02:44:17.155Z,101002.56
2022-11-28T02:46:51.172Z,101008.72
2022-11-28T02:49:25.210Z,101006.94
2022-11-28T02:51:57.188Z,101004.34
2022-11-28T02:54:27.628Z,100992.97
2022-11-28T02:56:56.162Z,100992.09
2022-11-28T02:59:47.693Z,100987.69
2022-11-28T03:02:19.026Z,100976.28
2022-11-28T03:04:56.393Z,100981.56
2022-11-28T03:07:43.213Z,100990.38
2022-11-28T03:10:23.727Z,100979.91
2022-11-28T03:13:02.883Z,100993.03
2022-11-28T03:15:36.652Z,100976.34
2022-11-28T03:18:13.410Z,100964.06
2022-11-28T03:20:48.328Z,100972.88
2022-11-28T03:23:18.615Z,100952.75
2022-11-28T03:25:56.847Z,100959.81
2022-11-28T03:28:28.640Z,100948.41
2022-11-28T03:31:01.654Z,100943.19
2022-11-28T03:33:35.305Z,100948.47
2022-11-28T03:36:09.404Z,100965.22
2022-11-28T03:38:43.173Z,100946.81
2022-11-28T03:41:16.227Z,100948.63
2022-11-28T03:43:48.683Z,100953.94
2022-11-28T03:46:19.834Z,100955.69
2022-11-28T03:48:50.551Z,100962.75
2022-11-28T03:51:23.333Z,100977.72
2022-11-28T03:53:57.325Z,100972.44
2022-11-28T03:56:35.201Z,100971.63
2022-11-28T03:59:11.373Z,100964.59
2022-11-28T04:01:49.441Z,100968.13
2022-11-28T04:04:23.809Z,100976.06
2022-11-28T04:06:56.369Z,100975.16
2022-11-28T04:09:37.442Z,100973.41
2022-11-28T04:12:11.878Z,100980.44
2022-11-28T04:14:46.441Z,100982.19
2022-11-28T04:17:20.622Z,100983.91
2022-11-28T04:19:52.592Z,100988.25
2022-11-28T04:22:27.020Z,100978.56
2022-11-28T04:24:58.541Z,100981.22
2022-11-28T04:27:33.220Z,100988.19
2022-11-28T04:30:03.317Z,100979.34
2022-11-28T04:32:34.157Z,100973.19
2022-11-28T04:35:05.869Z,100966.16
2022-11-28T04:37:36.345Z,100962.66
2022-11-28T04:40:05.770Z,100959.16
2022-11-28T04:42:40.960Z,100967.00
2022-11-28T04:45:15.349Z,100972.19
2022-11-28T04:47:44.272Z,100954.59
2022-11-28T04:50:13.411Z,100953.66
2022-11-28T04:52:50.282Z,100944.88
2022-11-28T04:55:28.051Z,100948.41
2022-11-28T04:58:01.656Z,100951.78
2022-11-28T05:00:29.542Z,100955.25
2022-11-28T05:02:57.857Z,100942.94
2022-11-28T05:05:28.638Z,100947.31
2022-11-28T05:07:58.811Z,100952.50
2022-11-28T05:10:26.604Z,100947.22
2022-11-28T05:12:54.314Z,100941.94
2022-11-28T05:15:22.166Z,100948.88
2022-11-28T05:17:50.098Z,100925.09
2022-11-28T05:20:18.198Z,100925.94
2022-11-28T05:22:46.362Z,100909.25
2022-11-28T05:25:15.709Z,100904.81
2022-11-28T05:27:44.006Z,100892.47
2022-11-28T05:30:12.994Z,100889.81
2022-11-28T05:32:40.967Z,100881.91
2022-11-28T05:35:09.324Z,100880.97
2022-11-28T05:37:37.076Z,100870.41
2022-11-28T05:40:05.911Z,100866.91
2022-11-28T05:42:35.508Z,100861.63
2022-11-28T05:45:03.869Z,100846.66
2022-11-28T05:47:32.026Z,100844.03
2022-11-28T05:49:59.873Z,100827.34
2022-11-28T05:52:32.378Z,100825.59
2022-11-28T05:55:01.594Z,100802.72
2022-11-28T05:57:31.941Z,100792.22
2022-11-28T06:00:00.976Z,100783.44
2022-11-28T06:02:28.863Z,100763.28
2022-11-28T06:04:56.708Z,100758.09
2022-11-28T06:07:24.600Z,100743.19
2022-11-28T06:09:52.515Z,100750.34
2022-11-28T06:12:20.558Z,100747.72
2022-11-28T06:14:48.476Z,100731.06
2022-11-28T06:17:17.628Z,100725.00
2022-11-28T06:19:45.536Z,100750.41
2022-11-28T06:22:13.408Z,100724.16
2022-11-28T06:24:41.153Z,100722.47
2022-11-28T06:27:08.869Z,100739.19
2022-11-28T06:29:36.777Z,100709.38
2022-11-28T06:32:04.668Z,100710.31
2022-11-28T06:34:34.445Z,100727.06
2022-11-28T06:37:02.377Z,100724.50
2022-11-28T06:39:30.104Z,100728.09
2022-11-28T06:41:58.045Z,100739.47
2022-11-28T06:44:25.893Z,100732.47
2022-11-28T06:46:54.642Z,100742.16
2022-11-28T06:49:22.725Z,100743.94
2022-11-28T06:51:51.975Z,100754.47
2022-11-28T06:54:19.761Z,100760.63
2022-11-28T06:56:47.479Z,100758.03
2022-11-28T06:59:15.300Z,100772.03
2022-11-28T07:01:43.212Z,100776.41
2022-11-28T07:04:11.204Z,100789.56
2022-11-28T07:06:39.358Z,100793.94
2022-11-28T07:09:08.705Z,100797.38
2022-11-28T07:11:37.112Z,100808.75
2022-11-28T07:14:05.715Z,100800.84
2022-11-28T07:16:34.627Z,100828.81
2022-11-28T07:19:02.551Z,100807.78
2022-11-28T07:21:30.956Z,100829.72
2022-11-28T07:23:59.525Z,100815.59
2022-11-28T07:26:28.792Z,100800.72
2022-11-28T07:28:58.377Z,100819.16
2022-11-28T07:31:31.774Z,100823.50
2022-11-28T07:34:02.467Z,100827.00
2022-11-28T07:36:30.617Z,100843.63
2022-11-28T07:39:00.816Z,100820.78
2022-11-28T07:41:30.457Z,100836.59
2022-11-28T07:43:59.835Z,100821.63
2022-11-28T07:46:29.497Z,100831.22
2022-11-28T07:48:57.558Z,100825.91
2022-11-28T07:51:27.857Z,100827.59
2022-11-28T07:53:55.748Z,100815.31
2022-11-28T07:56:25.447Z,100812.59
2022-11-28T07:58:56.913Z,100816.06
2022-11-28T08:01:30.212Z,100805.44
2022-11-28T08:03:58.670Z,100815.94
2022-11-28T08:06:28.761Z,100786.00
2022-11-28T08:08:57.853Z,100790.31
2022-11-28T08:11:28.367Z,100779.78
2022-11-28T08:14:00.771Z,100786.78
2022-11-28T08:16:30.278Z,100771.78
2022-11-28T08:19:00.796Z,100775.25
2022-11-28T08:21:30.811Z,100769.03
2022-11-28T08:24:01.484Z,100766.34
2022-11-28T08:26:31.302Z,100757.50
2022-11-28T08:29:01.546Z,100756.59
2022-11-28T08:31:32.034Z,100755.69
2022-11-28T08:34:02.012Z,100754.78
2022-11-28T08:36:30.614Z,100760.03
2022-11-28T08:39:22.748Z,100762.59
2022-11-28T08:41:50.101Z,100760.78
2022-11-28T08:44:19.498Z,100777.41
2022-11-28T08:46:47.247Z,100759.84
2022-11-28T08:49:15.953Z,100761.56
2022-11-28T08:51:43.767Z,100789.66
2022-11-28T08:54:11.566Z,100789.59
2022-11-28T08:56:39.479Z,100788.69
2022-11-28T08:59:08.136Z,100791.28
2022-11-28T09:01:37.437Z,100785.06
2022-11-28T09:04:06.701Z,100784.06
2022-11-28T09:06:34.481Z,100779.69
2022-11-28T09:09:02.868Z,100819.91
2022-11-28T09:11:30.635Z,100804.88
2022-11-28T09:13:58.389Z,100779.22
2022-11-28T09:16:26.157Z,100782.72
2022-11-28T09:18:57.515Z,100765.13
2022-11-28T09:21:25.272Z,100767.69
2022-11-28T09:23:56.074Z,100756.16
2022-11-28T09:26:25.823Z,100728.88
2022-11-28T09:28:54.189Z,100733.28
2022-11-28T09:31:22.039Z,100717.41
2022-11-28T09:33:50.002Z,100700.72
2022-11-28T09:36:21.160Z,100697.97
2022-11-28T09:38:49.613Z,100703.19
2022-11-28T09:41:41.493Z,100719.75
2022-11-28T09:44:17.819Z,100712.53
2022-11-28T09:46:47.848Z,100709.78
2022-11-28T09:49:36.792Z,100700.88
2022-11-28T09:52:19.075Z,100652.56
2022-11-28T09:54:53.538Z,100700.78
2022-11-28T09:57:31.539Z,100681.38
2022-11-28T09:59:59.457Z,100664.56
2022-11-28T10:02:32.996Z,100630.28
2022-11-28T10:05:11.127Z,100657.56
2022-11-28T10:07:54.925Z,100654.78
2022-11-28T10:10:31.198Z,100650.28
2022-11-28T10:13:04.715Z,100646.72
2022-11-28T10:15:45.560Z,100634.34
2022-11-28T10:18:29.147Z,100628.94
2022-11-28T10:21:02.152Z,100586.72
2022-11-28T10:23:40.665Z,100562.91
2022-11-28T10:26:14.269Z,100576.03
2022-11-28T10:28:47.586Z,100548.75
2022-11-28T10:31:20.777Z,100575.78
2022-11-28T10:33:54.982Z,100592.44
2022-11-28T10:36:28.608Z,100566.72
2022-11-28T10:38:58.266Z,100549.16
2022-11-28T10:41:33.225Z,100558.66
2022-11-28T10:44:06.271Z,100563.69
2022-11-28T10:46:50.915Z,100567.94
2022-11-28T10:49:27.904Z,100526.53
2022-11-28T10:52:04.388Z,100521.25
2022-11-28T10:54:51.932Z,100548.34
2022-11-28T10:57:25.264Z,100511.38
2022-11-28T11:00:04.126Z,100485.72
2022-11-28T11:02:38.220Z,100455.91
2022-11-28T11:05:07.897Z,100472.47
2022-11-28T11:07:35.942Z,100514.69
2022-11-28T11:10:15.285Z,100494.38
2022-11-28T11:12:44.619Z,100504.78
2022-11-28T11:15:19.049Z,100501.22
2022-11-28T11:17:46.814Z,100486.22
2022-11-28T11:20:34.804Z,100444.91
2022-11-28T11:23:04.605Z,100477.31
2022-11-28T11:25:34.629Z,100499.31
2022-11-28T11:28:05.628Z,100471.09
2022-11-28T11:30:36.464Z,100469.19
2022-11-28T11:33:06.992Z,100488.44
2022-11-28T11:35:37.273Z,100433.00
2022-11-28T11:38:20.023Z,100441.66
2022-11-28T11:40:50.303Z,100424.22
2022-11-28T11:43:30.179Z,100423.44
2022-11-28T11:46:16.692Z,100438.19
2022-11-28T11:48:46.091Z,100491.81
2022-11-28T11:51:24.846Z,100484.66
2022-11-28T11:54:04.094Z,100423.09
2022-11-28T11:56:38.335Z,100410.66
2022-11-28T11:59:13.213Z,100379.91
2022-11-28T12:01:43.296Z,100361.41
2022-11-28T12:04:43.756Z,100327.94
2022-11-28T12:07:19.649Z,100373.75
2022-11-28T12:09:52.662Z,100380.75
2022-11-28T12:12:26.600Z,100374.47
2022-11-28T12:14:54.377Z,100354.28
2022-11-28T12:17:52.391Z,100361.41
2022-11-28T12:20:38.785Z,100382.38
2022-11-28T12:23:21.103Z,100342.78
2022-11-28T12:25:54.588Z,100372.66
2022-11-28T12:28:40.296Z,100362.13
2022-11-28T12:31:19.083Z,100369.97
2022-11-28T12:33:58.874Z,100355.81
2022-11-28T12:36:34.997Z,100346.81
2022-11-28T12:39:18.824Z,100345.00
2022-11-28T12:42:09.217Z,100356.22
2022-11-28T12:44:54.211Z,100313.94
2022-11-28T12:47:32.153Z,100265.44
2022-11-28T12:50:11.648Z,100278.44
2022-11-28T12:52:48.837Z,100268.78
2022-11-28T12:55:27.081Z,100254.59
2022-11-28T12:58:06.558Z,100289.03
2022-11-28T13:00:49.680Z,100291.69
2022-11-28T13:03:35.442Z,100282.00
2022-11-28T13:06:18.154Z,100263.47
2022-11-28T13:08:58.885Z,100244.94
2022-11-28T13:11:57.065Z,100265.19
2022-11-28T13:14:37.219Z,100224.63
2022-11-28T13:17:24.194Z,100215.03
2022-11-28T13:20:00.921Z,100250.28
2022-11-28T13:22:39.382Z,100266.50
2022-11-28T13:25:20.527Z,100315.03
2022-11-28T13:27:56.385Z,100310.13
2022-11-28T13:30:27.175Z,100345.63
2022-11-28T13:33:05.558Z,100361.63
2022-11-28T13:35:35.238Z,100381.94
2022-11-28T13:41:02.018Z,100365.59
2022-11-28T13:43:46.398Z,100375.38
2022-11-28T13:46:17.808Z,100355.41
2022-11-28T13:49:20.224Z,100380.16
2022-11-28T13:51:49.128Z,100359.22
2022-11-28T13:54:48.818Z,100383.13
2022-11-28T13:57:39.055Z,100396.41
2022-11-28T14:00:22.814Z,100392.09
2022-11-28T14:02:54.779Z,100396.63
2022-11-28T14:05:30.187Z,100392.38
2022-11-28T14:07:59.030Z,100408.22
2022-11-28T14:10:51.978Z,100413.50
2022-11-28T14:13:57.019Z,100396.03
2022-11-28T14:16:46.857Z,100413.66
2022-11-28T14:19:34.749Z,100408.53
2022-11-28T14:22:18.140Z,100400.75
2022-11-28T14:24:56.437Z,100399.88
2022-11-28T14:27:27.075Z,100408.69
2022-11-28T14:29:57.910Z,100413.97
2022-11-28T14:32:34.314Z,100419.25
2022-11-28T14:35:02.918Z,100422.00
2022-11-28T14:37:50.178Z,100448.53
2022-11-28T14:41:06.148Z,100438.88
2022-11-28T14:43:36.406Z,100441.59
2022-11-28T14:46:26.712Z,100445.25
2022-11-28T14:49:23.446Z,100453.25
2022-11-28T14:52:38.830Z,100435.84
2022-11-28T14:55:18.712Z,100469.28
2022-11-28T14:57:55.971Z,100476.41
2022-11-28T15:00:26.382Z,100485.16
2022-11-28T15:03:19.068Z,100477.34
2022-11-28T15:05:49.023Z,100471.22
2022-11-28T15:08:39.311Z,100467.72
2022-11-28T15:11:22.312Z,100466.03
2022-11-28T15:14:03.073Z,100470.47
2022-11-28T15:16:33.223Z,100479.31
2022-11-28T15:19:07.471Z,100474.09
2022-11-28T15:21:44.923Z,100492.63
2022-11-28T15:24:24.797Z,100498.88
2022-11-28T15:26:57.642Z,100511.22
2022-11-28T15:29:27.847Z,100503.31
2022-11-28T15:31:57.802Z,100496.25
2022-11-28T15:34:28.445Z,100513.91
2022-11-28T15:36:58.037Z,100498.16
2022-11-28T15:39:30.188Z,100508.63
2022-11-28T15:42:02.805Z,100498.13
2022-11-28T15:44:31.089Z,100480.56
2022-11-28T15:46:59.286Z,100479.75
2022-11-28T15:49:30.347Z,100493.00
2022-11-28T15:52:00.919Z,100480.69
2022-11-28T15:54:37.467Z,100507.06
2022-11-28T15:57:07.408Z,100501.81
2022-11-28T15:59:35.263Z,100494.81
2022-11-28T16:02:14.118Z,100518.56
2022-11-28T16:04:42.891Z,100520.28
2022-11-28T16:07:15.304Z,100525.56
2022-11-28T16:09:54.861Z,100527.38
2022-11-28T16:12:24.689Z,100521.28
2022-11-28T16:14:58.795Z,100507.31
2022-11-28T16:17:29.389Z,100496.84
2022-11-28T16:19:58.224Z,100510.84
2022-11-28T16:22:31.518Z,100488.97
2022-11-28T16:25:11.695Z,100500.41
2022-11-28T16:27:42.831Z,100501.38
2022-11-28T16:30:27.425Z,100497.88
2022-11-28T16:32:56.907Z,100505.88
2022-11-28T16:35:30.219Z,100509.38
2022-11-28T16:38:15.449Z,100514.69
2022-11-28T16:40:44.362Z,100506.00
2022-11-28T16:43:24.660Z,100508.63
2022-11-28T16:46:00.211Z,100509.56
2022-11-28T16:48:31.783Z,100520.13
2022-11-28T16:51:29.425Z,100525.41
2022-11-28T16:53:59.530Z,100527.19
2022-11-28T16:56:43.726Z,100513.16
2022-11-28T16:59:15.131Z,100536.03
2022-11-28T17:01:45.702Z,100531.72
2022-11-28T17:04:21.961Z,100527.41
2022-11-28T17:06:50.144Z,100547.56
2022-11-28T17:09:18.247Z,100551.06
2022-11-28T17:11:57.753Z,100556.41
2022-11-28T17:14:29.635Z,100559.94
2022-11-28T17:16:57.480Z,100559.13
2022-11-28T17:19:25.682Z,100558.28
2022-11-28T17:21:55.927Z,100563.56
2022-11-28T17:24:26.482Z,100556.63
2022-11-28T17:26:55.047Z,100563.66
2022-11-28T17:29:25.193Z,100566.34
2022-11-28T17:31:55.431Z,100563.72
2022-11-28T17:34:26.230Z,100566.41
2022-11-28T17:36:55.077Z,100574.31
2022-11-28T17:39:23.203Z,100567.34
2022-11-28T17:41:51.308Z,100576.97
2022-11-28T17:44:21.456Z,100574.34
2022-11-28T17:46:50.152Z,100568.25
2022-11-28T17:49:20.240Z,100562.13
2022-11-28T17:51:48.111Z,100561.28
2022-11-28T17:54:18.505Z,100564.00
2022-11-28T17:56:47.174Z,100572.78
2022-11-28T17:59:15.985Z,100568.44
2022-11-28T18:01:44.512Z,100570.22
2022-11-28T18:04:12.782Z,100559.69
2022-11-28T18:06:44.010Z,100579.03
2022-11-28T18:09:13.007Z,100579.03
2022-11-28T18:11:41.191Z,100571.19
2022-11-28T18:14:09.529Z,100569.44
2022-11-28T18:16:37.473Z,100564.22
2022-11-28T18:19:05.627Z,100573.84
2022-11-28T18:21:33.504Z,100556.31
2022-11-28T18:24:02.666Z,100548.50
2022-11-28T18:26:30.440Z,100565.19
2022-11-28T18:28:58.236Z,100554.72
2022-11-28T18:31:28.319Z,100564.34
2022-11-28T18:34:01.587Z,100586.28
2022-11-28T18:36:31.217Z,100571.41
2022-11-28T18:39:00.730Z,100567.03
2022-11-28T18:41:30.761Z,100596.91
2022-11-28T18:43:59.471Z,100585.47
2022-11-28T18:46:27.751Z,100588.97
2022-11-28T18:48:55.521Z,100597.72
2022-11-28T18:51:26.302Z,100596.00
2022-11-28T18:53:55.784Z,100596.00
2022-11-28T18:56:24.082Z,100594.22
2022-11-28T18:58:55.041Z,100605.59
2022-11-28T19:01:28.287Z,100592.44
2022-11-28T19:03:57.773Z,100583.69
2022-11-28T19:06:26.297Z,100603.00
2022-11-28T19:08:55.253Z,100588.94
2022-11-28T19:11:23.156Z,100598.56
2022-11-28T19:13:53.336Z,100579.31
2022-11-28T19:16:24.952Z,100584.59
2022-11-28T19:18:53.101Z,100591.59
2022-11-28T19:21:23.187Z,100587.28
2022-11-28T19:23:52.039Z,100593.41
2022-11-28T19:26:22.058Z,100596.94
2022-11-28T19:28:50.538Z,100602.25
2022-11-28T19:31:21.181Z,100598.75
2022-11-28T19:34:00.822Z,100590.03
2022-11-28T19:36:30.067Z,100596.22
2022-11-28T19:38:58.410Z,100597.06
2022-11-28T19:41:26.546Z,100595.31
2022-11-28T19:43:54.417Z,100606.72
2022-11-28T19:46:22.549Z,100604.09
2022-11-28T19:48:51.874Z,100618.13
2022-11-28T19:51:20.263Z,100618.13
2022-11-28T19:53:48.545Z,100616.41
2022-11-28T19:56:18.217Z,100612.91
2022-11-28T19:58:47.459Z,100619.91
2022-11-28T20:01:17.445Z,100597.09
2022-11-28T20:03:47.581Z,100613.78
2022-11-28T20:06:19.137Z,100620.84
2022-11-28T20:08:48.211Z,100624.31
2022-11-28T20:11:20.664Z,100626.09
2022-11-28T20:13:49.468Z,100632.22
2022-11-28T20:16:18.752Z,100632.22
2022-11-28T20:18:47.095Z,100627.00
2022-11-28T20:21:18.399Z,100635.84
2022-11-28T20:23:49.318Z,100626.09
2022-11-28T20:26:18.733Z,100638.41
2022-11-28T20:28:47.502Z,100629.59
2022-11-28T20:31:20.355Z,100636.59
2022-11-28T20:33:48.706Z,100641.88
2022-11-28T20:36:20.126Z,100637.50
2022-11-28T20:38:48.404Z,100640.13
2022-11-28T20:41:18.157Z,100647.13
2022-11-28T20:43:46.252Z,100666.34
2022-11-28T20:46:16.739Z,100645.31
2022-11-28T20:48:44.540Z,100653.16
2022-11-28T20:51:13.601Z,100629.41
2022-11-28T20:53:47.221Z,100650.50
2022-11-28T20:56:17.085Z,100632.94
2022-11-28T20:58:45.450Z,100631.13
2022-11-28T21:01:15.357Z,100625.88
2022-11-28T21:03:43.386Z,100629.38
2022-11-28T21:06:11.746Z,100621.50
2022-11-28T21:08:40.138Z,100627.63
2022-11-28T21:11:10.827Z,100622.38
2022-11-28T21:13:38.902Z,100608.34
2022-11-28T21:16:08.292Z,100626.84
2022-11-28T21:18:38.059Z,100633.75
2022-11-28T21:21:08.536Z,100637.34
2022-11-28T21:23:36.450Z,100632.03
2022-11-28T21:26:06.470Z,100629.38
2022-11-28T21:28:36.693Z,100620.63
2022-11-28T21:31:06.708Z,100627.66
2022-11-28T21:33:34.565Z,100620.66
2022-11-28T21:36:03.282Z,100629.47
2022-11-28T21:38:31.585Z,100618.97
2022-11-28T21:41:00.256Z,100628.63
2022-11-28T21:43:29.677Z,100626.00
2022-11-28T21:46:04.241Z,100630.34
2022-11-28T21:48:33.332Z,100618.91
2022-11-28T21:51:05.475Z,100634.75
2022-11-28T21:53:35.201Z,100629.47
2022-11-28T21:56:06.283Z,100617.25
2022-11-28T21:58:34.060Z,100633.03
2022-11-28T22:01:05.340Z,100628.69
2022-11-28T22:03:33.540Z,100635.75
2022-11-28T22:06:02.722Z,100642.78
2022-11-28T22:08:31.329Z,100637.53
2022-11-28T22:11:01.220Z,100648.97
2022-11-28T22:13:29.313Z,100654.25
2022-11-28T22:15:57.793Z,100653.38
2022-11-28T22:18:27.187Z,100666.56
2022-11-28T22:21:02.183Z,100663.94
2022-11-28T22:23:30.248Z,100670.97
2022-11-28T22:25:58.121Z,100677.09
2022-11-28T22:28:25.817Z,100677.09
2022-11-28T22:30:53.968Z,100675.41
2022-11-28T22:33:21.716Z,100680.63
2022-11-28T22:35:50.878Z,100671.88
2022-11-28T22:38:18.933Z,100682.44
2022-11-28T22:40:46.641Z,100672.88
2022-11-28T22:43:14.418Z,100692.13
2022-11-28T22:45:42.242Z,100695.69
2022-11-28T22:48:10.102Z,100691.25
2022-11-28T22:50:40.420Z,100695.63
2022-11-28T22:53:09.741Z,100684.25
2022-11-28T22:55:37.531Z,100687.84
2022-11-28T22:58:05.257Z,100695.69
2022-11-28T23:00:33.183Z,100677.31
2022-11-28T23:03:02.073Z,100688.72
2022-11-28T23:05:29.952Z,100684.38
2022-11-28T23:07:57.712Z,100678.25
2022-11-28T23:10:26.875Z,100702.78
2022-11-28T23:12:54.702Z,100690.53
2022-11-28T23:15:22.550Z,100701.91
2022-11-28T23:17:50.930Z,100680.91
2022-11-28T23:20:19.228Z,100690.59
2022-11-28T23:22:46.940Z,100685.34
2022-11-28T23:25:15.298Z,100695.88
2022-11-28T23:27:44.410Z,100693.25
2022-11-28T23:30:12.829Z,100704.66
2022-11-28T23:32:40.581Z,100721.31
2022-11-28T23:35:08.705Z,100700.25
2022-11-28T23:37:39.368Z,100704.66
2022-11-28T23:40:08.939Z,100697.63
2022-11-28T23:42:36.719Z,100698.53
2022-11-28T23:45:07.010Z,100695.91
2022-11-28T23:47:34.669Z,100697.69
2022-11-28T23:50:02.441Z,100689.78
2022-11-28T23:52:30.250Z,100681.09
2022-11-28T23:54:57.896Z,100693.38
2022-11-28T23:57:25.625Z,100705.69
2022-11-28T23:59:53.433Z,100689.94
